Monterey Regional Airport

Airport
ICAO code: 
KMRY
Summary
ICAO Region: 
NAM
Territory: 
Location: 
Monterey, California,
Serving: 
Monterey, California
Coordinates: 
Aerial View: 
36° 35' 17.768" N, 121° 50' 56.793" W
Airport LOS: 
Parallel Runway Operation
Airport WX: 
Fog
Metar
Observation
KMRY 020954Z AUTO 10005KT 10SM R10R/5000V5500FT CLR 10/03 A3008 RMK AO2 SLP198 T01000033
Station
Monterey, Monterey Peninsula Airport
Date/Time
2021-12-02 09:54:00
Wind direction
100°
Wind speed
05 kts
Lowest cloud amount
n/a
Temperature
10°C
Dew point
3.3°C
Humidity
63%
Weather condition
n/a

Description

Monterey Regional Airport is a regional airport located 5 km southeast of the central business district of Monterey, a city in Monterey County, California.

Climatology

Dry-summer subtropical ”Mediterranean" climate (Köppen climate classification Csb) - characterized by warm, dry summers and mild winters.

Runways

Designator Length Width Surface Rops
10L/28R 1071 18 ASP Yes/Yes
10R/28L 2321 46 ASP Yes/Yes
Airport map: 
Aerial View: 

SKYbrary Partners:

Safety knowledge contributed by: